Roseburg, OR

3:46 PM PDT on March 24, 2017 (GMT -0700)
West Umpqua Street | | Change Station

Elev 0 ft 43.22 °N, 123.36 °W | Updated 2 minutes ago

Overcast
Overcast
53.1 °F
Feels Like 53.1 °F
N
0.6
Wind Variable Wind from NNW
Gusts 2.5 mph

Today
High -- | Low -- °F
--% Chance of Precip.
Yesterday
High -- | Low -- °F
Precip. -- in
Pressure 30.01 in
Visibility 10.0 miles
Clouds Mostly Cloudy 4700 ft
Overcast 6000 ft
Dew Point 45 °F
Humidity 74%
Rainfall 0.50 in
Snow Depth Not available.
7:08 AM 7:30 PM
Waning Crescent, 12% visible
METAR KRBG 242153Z AUTO 17007KT 10SM BKN047 OVC060 12/07 A3001 RMK AO2 RAE40 SLP161 P0000 T01220067
Pressure 30.01 in
Visibility 10.0 miles
Clouds Mostly Cloudy 4700 ft
Overcast 6000 ft
Dew Point 45 °F
Humidity 74%
Rainfall 0.50 in
Snow Depth Not available.
7:08 AM 7:30 PM
Waning Crescent, 12% visible
METAR KRBG 242153Z AUTO 17007KT 10SM BKN047 OVC060 12/07 A3001 RMK AO2 RAE40 SLP161 P0000 T01220067

Get Severe Weather Alerts

Thanks for signing up!

Be on the lookout for a verification email in your inbox.

You'll start receiving the daily forecast at 8 AM.

×

10-Day Weather Forecast

Almanac

Astronomy

Mar. 24, 2017 Rise Set
Actual Time
Civil Twilight
Nautical Twilight
Astronomical Twilight
Moon
Length of Visible Light
Length of Day
Tomorrow will be .
, % of the Moon is Illuminated

Today's Extremes

State Highs State Lows

Community

WunderPhotos

Upload Photos

1,962,540 photos uploaded!

WunderBlog® & News

Nearby

Air Quality

  Air Quality AQ Index Pollutant
Not available.

Snow Depth

Station Depth Elevation

Earthquake Activity

City Distance Mag. Time & Date
Minimum magnitude displayed is 2.5.

Earthquake Activity

City Distance Mag. Time & Date
Minimum magnitude displayed is 2.5.

Coastal Water Temperatures

Place Temperature

Stations

Nearby Weather Stations

Station Location Temp. Windchill Dew Point Humidity Wind Precip. Elev Updated Type
                   

Watches & Warnings

There are currently no watches in effect.